Time;durP1;ratioP1;P1;durP2;ratioP2;P2;SDS_P1;SDS_P2;PMS_P1;PMS_P2;Temp;Humidity;BMP_temperature;BMP_pressure;BME280_temperature;BME280_humidity;BME280_pressure;Samples;Min_cycle;Max_cycle;Signal;HPM_P1;HPM_P2
2023/05/09 00:01:57;;;;;;;9.63;6.20;;;26.10;99.90;;;;;;4994498;28;20058;-48
2023/05/09 00:04:24;;;;;;;9.43;5.63;;;26.00;99.90;;;;;;4994359;28;20148;-48
2023/05/09 00:06:49;;;;;;;12.27;6.40;;;26.10;99.90;;;;;;4994152;28;20768;-48
2023/05/09 00:09:15;;;;;;;10.57;6.80;;;26.00;99.90;;;;;;4994186;28;20097;-48
2023/05/09 00:11:41;;;;;;;7.28;5.22;;;26.00;99.90;;;;;;4994143;28;20477;-48
2023/05/09 00:14:07;;;;;;;10.05;6.07;;;26.00;99.90;;;;;;4993868;28;20062;-48
2023/05/09 00:16:35;;;;;;;9.07;5.75;;;26.00;99.90;;;;;;4993846;28;20030;-49
2023/05/09 00:19:02;;;;;;;11.45;5.80;;;26.00;99.90;;;;;;4994115;28;20496;-48
2023/05/09 00:21:29;;;;;;;11.38;5.85;;;26.10;99.90;;;;;;4994277;28;20384;-48
2023/05/09 00:23:55;;;;;;;9.20;5.60;;;26.00;99.90;;;;;;4993854;28;20506;-48
2023/05/09 00:26:21;;;;;;;10.50;5.82;;;26.00;99.90;;;;;;4994109;28;20097;-48
2023/05/09 00:28:47;;;;;;;9.52;6.22;;;26.00;99.90;;;;;;4993732;28;20060;-48
2023/05/09 00:31:13;;;;;;;8.77;5.97;;;26.00;99.90;;;;;;4992321;28;20026;-49
2023/05/09 00:33:38;;;;;;;8.93;5.88;;;26.00;99.90;;;;;;4993732;28;20037;-48
2023/05/09 00:36:04;;;;;;;8.25;5.50;;;26.00;99.90;;;;;;4993476;28;20034;-49
2023/05/09 00:38:30;;;;;;;7.50;5.72;;;26.00;99.90;;;;;;4993741;28;20034;-48
2023/05/09 00:40:56;;;;;;;10.07;5.63;;;26.00;99.90;;;;;;4993576;28;20022;-48
2023/05/09 00:43:22;;;;;;;10.25;6.45;;;26.00;99.90;;;;;;4993314;28;20026;-48
2023/05/09 00:45:48;;;;;;;11.98;6.22;;;26.00;99.90;;;;;;4993391;28;20041;-48
2023/05/09 00:48:15;;;;;;;10.93;5.75;;;26.00;99.90;;;;;;4993224;28;20030;-48
2023/05/09 00:50:41;;;;;;;9.77;5.93;;;26.00;99.90;;;;;;4993493;28;20025;-48
2023/05/09 00:53:08;;;;;;;8.50;5.32;;;26.00;99.90;;;;;;4993380;28;20054;-49
2023/05/09 00:55:34;;;;;;;9.63;6.53;;;26.00;99.90;;;;;;4993723;28;20027;-48
2023/05/09 00:58:01;;;;;;;8.55;5.72;;;26.00;99.90;;;;;;4993445;28;20568;-48
2023/05/09 01:00:28;;;;;;;8.57;5.93;;;26.00;99.90;;;;;;4994389;23;20021;-52
2023/05/09 01:02:55;;;;;;;8.82;5.57;;;26.00;99.90;;;;;;4993209;28;20053;-52
2023/05/09 01:05:28;;;;;;;9.77;6.03;;;26.00;99.90;;;;;;4992970;28;20388;-52
2023/05/09 01:08:15;;;;;;;10.90;6.38;;;26.00;99.90;;;;;;4993500;28;20799;-52
2023/05/09 01:11:03;;;;;;;10.10;6.70;;;26.00;99.90;;;;;;4992983;28;20041;-52
2023/05/09 01:13:40;;;;;;;9.32;6.90;;;26.00;99.90;;;;;;4992943;28;20053;-52
2023/05/09 01:16:16;;;;;;;12.20;7.03;;;26.00;99.90;;;;;;4993190;28;20117;-52
2023/05/09 01:18:48;;;;;;;13.25;6.53;;;26.00;99.90;;;;;;4992875;28;20034;-52
2023/05/09 01:21:23;;;;;;;11.38;6.93;;;26.00;99.90;;;;;;4992974;28;20040;-51
2023/05/09 01:23:54;;;;;;;11.35;7.57;;;25.90;99.90;;;;;;4992762;28;20022;-52
2023/05/09 01:26:41;;;;;;;10.85;7.60;;;25.90;99.90;;;;;;4993090;28;20133;-51
2023/05/09 01:29:10;;;;;;;12.23;7.45;;;25.90;99.90;;;;;;4992739;28;20366;-52
2023/05/09 01:31:40;;;;;;;12.25;7.50;;;26.00;99.90;;;;;;5002918;28;20038;-51
2023/05/09 01:34:08;;;;;;;10.90;7.20;;;25.90;99.90;;;;;;4995097;28;20027;-52
2023/05/09 01:36:38;;;;;;;12.25;7.63;;;25.90;99.90;;;;;;4992689;28;20038;-52
2023/05/09 01:39:06;;;;;;;11.38;8.20;;;25.90;99.90;;;;;;4992591;28;20441;-52
2023/05/09 01:41:36;;;;;;;12.45;7.90;;;25.90;99.90;;;;;;4992643;28;20033;-52
2023/05/09 01:44:06;;;;;;;10.85;8.20;;;25.90;99.90;;;;;;4992461;28;20089;-52
2023/05/09 01:46:34;;;;;;;14.18;8.55;;;25.90;99.90;;;;;;4992440;28;20026;-52
2023/05/09 01:49:01;;;;;;;;;;;25.90;99.90;;;;;;4993057;28;20026;-52
2023/05/09 01:51:28;;;;;;;14.68;8.90;;;25.90;99.90;;;;;;5001031;28;19905;-52
2023/05/09 01:53:56;;;;;;;14.50;8.95;;;25.90;99.90;;;;;;4996697;28;20485;-52
2023/05/09 01:56:24;;;;;;;13.27;8.20;;;26.00;99.90;;;;;;4992502;28;20034;-52
2023/05/09 01:58:50;;;;;;;;;;;25.90;99.90;;;;;;4992975;28;20499;-52
2023/05/09 02:01:17;;;;;;;13.30;8.57;;;25.90;99.90;;;;;;5007818;23;19922;-47
2023/05/09 02:03:47;;;;;;;13.38;8.85;;;25.90;99.90;;;;;;4992620;28;20104;-47
2023/05/09 02:06:15;;;;;;;12.85;9.95;;;25.90;99.90;;;;;;4980373;28;20073;-47
2023/05/09 02:08:42;;;;;;;14.20;8.63;;;25.90;99.90;;;;;;4992305;28;20026;-48
2023/05/09 02:11:08;;;;;;;12.50;8.73;;;25.90;99.90;;;;;;4992417;28;20031;-47
2023/05/09 02:13:34;;;;;;;11.80;8.95;;;25.90;99.90;;;;;;4992381;28;20026;-47
2023/05/09 02:16:00;;;;;;;12.93;9.80;;;25.90;99.90;;;;;;4992477;28;20047;-47
2023/05/09 02:18:26;;;;;;;11.20;8.38;;;25.90;99.90;;;;;;4992464;28;20030;-47
2023/05/09 02:20:52;;;;;;;10.43;8.07;;;25.90;99.90;;;;;;4992699;28;20022;-47
2023/05/09 02:23:19;;;;;;;13.65;8.82;;;25.90;99.90;;;;;;4991000;28;20030;-47
2023/05/09 02:25:45;;;;;;;11.40;8.60;;;25.90;99.90;;;;;;4991421;28;20037;-47
2023/05/09 02:28:12;;;;;;;12.63;8.98;;;25.90;99.90;;;;;;4991195;28;20275;-47
2023/05/09 02:30:43;;;;;;;14.10;8.88;;;25.90;99.90;;;;;;4992240;28;20472;-48
2023/05/09 02:33:11;;;;;;;12.40;9.25;;;25.90;99.90;;;;;;4992311;28;20031;-47
2023/05/09 02:35:40;;;;;;;9.32;7.53;;;25.90;99.90;;;;;;4992157;28;20490;-48
2023/05/09 02:38:06;;;;;;;11.88;8.93;;;25.90;99.90;;;;;;4992663;28;20366;-47
2023/05/09 02:40:33;;;;;;;12.13;8.45;;;25.90;99.90;;;;;;4991942;28;20077;-47
2023/05/09 02:42:58;;;;;;;12.05;9.35;;;25.90;99.90;;;;;;4992021;28;20027;-47
2023/05/09 02:45:25;;;;;;;13.73;8.43;;;25.90;99.90;;;;;;4992258;28;20038;-48
2023/05/09 02:47:50;;;;;;;12.60;9.00;;;25.80;99.90;;;;;;4991311;28;20030;-48
2023/05/09 02:50:16;;;;;;;14.63;9.55;;;25.90;99.90;;;;;;4992073;28;20380;-48
2023/05/09 02:52:42;;;;;;;12.40;9.13;;;25.90;99.90;;;;;;4991801;28;20023;-47
2023/05/09 02:55:08;;;;;;;11.05;8.27;;;25.90;99.90;;;;;;4992113;28;20018;-47
2023/05/09 02:57:34;;;;;;;16.63;8.75;;;25.80;99.90;;;;;;4991928;28;20043;-46
2023/05/09 03:00:00;;;;;;;12.40;8.88;;;25.90;99.90;;;;;;4991947;28;20153;-47
2023/05/09 03:02:26;;;;;;;13.55;9.38;;;25.80;99.90;;;;;;4991178;28;20141;-47
2023/05/09 03:04:52;;;;;;;12.35;8.27;;;25.80;99.90;;;;;;4994084;28;20037;-46
2023/05/09 03:07:17;;;;;;;12.48;9.27;;;25.80;99.90;;;;;;4994194;28;20038;-47
2023/05/09 03:09:43;;;;;;;13.20;8.70;;;25.80;99.90;;;;;;4995381;28;20030;-47
2023/05/09 03:12:09;;;;;;;11.57;8.80;;;25.80;99.90;;;;;;4995212;28;20484;-46
2023/05/09 03:14:35;;;;;;;14.00;9.43;;;25.80;99.90;;;;;;4995522;28;20084;-47
2023/05/09 03:17:01;;;;;;;12.93;8.95;;;25.80;99.90;;;;;;4995177;28;20034;-48
2023/05/09 03:19:27;;;;;;;13.00;9.75;;;25.80;99.90;;;;;;4995346;28;20101;-47
2023/05/09 03:21:53;;;;;;;12.60;8.43;;;25.80;99.90;;;;;;4995353;28;20073;-46
2023/05/09 03:24:19;;;;;;;12.20;8.80;;;25.80;99.90;;;;;;4995178;28;20027;-46
2023/05/09 03:26:45;;;;;;;11.60;8.27;;;25.80;99.90;;;;;;4993584;28;20041;-47
2023/05/09 03:29:10;;;;;;;13.45;8.73;;;25.80;99.90;;;;;;4995107;28;20030;-46
2023/05/09 03:31:36;;;;;;;14.20;9.65;;;25.80;99.90;;;;;;5008228;28;20037;-47
2023/05/09 03:34:02;;;;;;;13.30;8.32;;;25.80;99.90;;;;;;4993669;28;20026;-46
2023/05/09 03:36:28;;;;;;;12.98;8.48;;;25.80;99.90;;;;;;4993982;28;20041;-48
2023/05/09 03:38:53;;;;;;;13.02;9.18;;;25.80;99.90;;;;;;4994995;28;20022;-46
2023/05/09 03:41:19;;;;;;;11.77;8.32;;;25.80;99.90;;;;;;4995000;28;20030;-47
2023/05/09 03:43:45;;;;;;;12.43;7.93;;;25.80;99.90;;;;;;4994795;28;20377;-46
2023/05/09 03:46:11;;;;;;;12.18;8.43;;;25.80;99.90;;;;;;4994804;28;20022;-47
2023/05/09 03:48:37;;;;;;;11.52;8.07;;;25.80;99.90;;;;;;4994649;28;20384;-47
2023/05/09 03:51:03;;;;;;;14.13;8.75;;;25.80;99.90;;;;;;4994847;28;20030;-47
2023/05/09 03:53:29;;;;;;;12.05;8.20;;;25.80;99.90;;;;;;4994519;28;20041;-47
2023/05/09 03:55:54;;;;;;;10.30;8.75;;;25.70;99.90;;;;;;4994733;28;20038;-46
2023/05/09 03:58:20;;;;;;;13.40;8.85;;;25.80;99.90;;;;;;4994611;28;20188;-47
2023/05/09 04:00:46;;;;;;;16.55;9.57;;;25.80;99.90;;;;;;4994807;28;20090;-47
2023/05/09 04:03:12;;;;;;;12.65;9.00;;;25.80;99.90;;;;;;4994590;28;20054;-47
2023/05/09 04:05:38;;;;;;;11.00;8.52;;;25.80;99.90;;;;;;4992933;28;20098;-46
2023/05/09 04:08:04;;;;;;;11.30;8.88;;;25.70;99.90;;;;;;4993206;28;20469;-46
2023/05/09 04:10:31;;;;;;;12.27;8.35;;;25.70;99.90;;;;;;4994330;28;20058;-47
2023/05/09 04:12:57;;;;;;;12.10;8.23;;;25.80;99.90;;;;;;4994668;28;20017;-47
2023/05/09 04:15:22;;;;;;;13.57;9.77;;;25.70;99.90;;;;;;4993998;28;20113;-46
2023/05/09 04:17:48;;;;;;;10.50;8.82;;;25.70;99.90;;;;;;4992880;28;20031;-47
2023/05/09 04:20:14;;;;;;;12.43;8.93;;;25.70;99.90;;;;;;4994020;28;20019;-46
2023/05/09 04:22:40;;;;;;;13.20;8.23;;;25.70;99.90;;;;;;4994090;28;20022;-46
2023/05/09 04:25:06;;;;;;;12.20;8.65;;;25.70;99.90;;;;;;4993924;28;20428;-46
2023/05/09 04:27:32;;;;;;;11.95;8.15;;;25.70;99.90;;;;;;4994064;28;20025;-46
2023/05/09 04:29:57;;;;;;;15.02;8.45;;;25.70;99.90;;;;;;4993357;28;20023;-46
2023/05/09 04:32:23;;;;;;;13.90;8.38;;;25.70;99.90;;;;;;4993986;28;20026;-47
2023/05/09 04:34:49;;;;;;;14.52;8.82;;;25.70;99.90;;;;;;4994114;28;20027;-45
2023/05/09 04:37:15;;;;;;;11.20;7.53;;;25.70;99.90;;;;;;4993837;28;20034;-46
2023/05/09 04:39:42;;;;;;;10.93;7.95;;;25.70;99.90;;;;;;4993829;28;20101;-46
2023/05/09 04:42:07;;;;;;;15.75;8.80;;;25.70;99.90;;;;;;4992730;28;20019;-47
2023/05/09 04:44:34;;;;;;;12.57;9.13;;;25.70;99.90;;;;;;4994087;28;20042;-47
2023/05/09 04:47:00;;;;;;;12.97;8.20;;;25.70;99.90;;;;;;4992792;28;20019;-47
2023/05/09 04:49:26;;;;;;;13.82;7.93;;;25.70;99.90;;;;;;4993852;28;20022;-46
2023/05/09 04:51:51;;;;;;;13.57;8.57;;;25.70;99.90;;;;;;4993608;28;20085;-46
2023/05/09 04:54:17;;;;;;;11.32;8.77;;;25.70;99.90;;;;;;4993556;28;20034;-48
2023/05/09 04:56:43;;;;;;;13.32;8.82;;;25.70;99.90;;;;;;5006429;28;20464;-47
2023/05/09 04:59:09;;;;;;;14.00;8.27;;;25.70;99.90;;;;;;4993606;28;20094;-46
2023/05/09 05:01:34;;;;;;;11.75;8.40;;;25.70;99.90;;;;;;4993142;28;20085;-47
2023/05/09 05:04:00;;;;;;;12.15;8.57;;;25.60;99.90;;;;;;4993838;28;20075;-47
2023/05/09 05:06:26;;;;;;;15.45;9.30;;;25.60;99.90;;;;;;4993427;28;20026;-47
2023/05/09 05:08:52;;;;;;;11.35;8.80;;;25.60;99.90;;;;;;4993014;28;20036;-47
2023/05/09 05:11:19;;;;;;;11.18;7.80;;;25.60;99.90;;;;;;4993326;28;20037;-47
2023/05/09 05:13:45;;;;;;;12.23;7.93;;;25.60;99.90;;;;;;4993166;28;20034;-47
2023/05/09 05:16:11;;;;;;;10.90;8.07;;;25.70;99.90;;;;;;4993137;28;20093;-47
2023/05/09 05:18:36;;;;;;;12.40;8.25;;;25.70;99.90;;;;;;4991933;28;20027;-47
2023/05/09 05:21:02;;;;;;;11.88;8.60;;;25.60;99.90;;;;;;4993337;28;20026;-47
2023/05/09 05:23:28;;;;;;;13.68;7.90;;;25.70;99.90;;;;;;4993314;28;20018;-47
2023/05/09 05:25:54;;;;;;;16.58;8.57;;;25.60;99.90;;;;;;4991798;28;20033;-47
2023/05/09 05:28:20;;;;;;;12.77;8.93;;;25.60;99.90;;;;;;4992432;28;20034;-47
2023/05/09 05:30:45;;;;;;;14.88;8.13;;;25.60;99.90;;;;;;4992887;28;20027;-47
2023/05/09 05:33:11;;;;;;;12.50;7.57;;;25.60;99.90;;;;;;4992920;28;20026;-45
2023/05/09 05:35:37;;;;;;;11.73;7.35;;;25.60;99.90;;;;;;4992893;28;20473;-46
2023/05/09 05:38:03;;;;;;;12.45;7.57;;;25.60;99.90;;;;;;5002374;28;20463;-46
2023/05/09 05:40:29;;;;;;;13.50;8.23;;;25.60;99.90;;;;;;4995529;28;20037;-46
2023/05/09 05:42:55;;;;;;;10.95;8.07;;;25.60;99.90;;;;;;4992778;28;20026;-46
2023/05/09 05:45:21;;;;;;;15.98;8.70;;;25.60;99.90;;;;;;4991573;28;20023;-47
2023/05/09 05:47:46;;;;;;;15.98;9.60;;;25.60;99.90;;;;;;4992989;28;20094;-47
2023/05/09 05:50:12;;;;;;;12.65;8.73;;;25.60;99.90;;;;;;4993859;28;20032;-48
2023/05/09 05:52:39;;;;;;;14.75;8.57;;;25.60;99.90;;;;;;5004726;28;20057;-46
2023/05/09 05:55:05;;;;;;;9.98;7.90;;;25.60;99.90;;;;;;4992795;28;20101;-47
2023/05/09 05:57:31;;;;;;;11.30;7.95;;;25.60;99.90;;;;;;4992782;28;20758;-48
2023/05/09 05:59:57;;;;;;;13.95;7.35;;;25.60;99.90;;;;;;4992644;28;20034;-47
2023/05/09 06:02:22;;;;;;;16.00;9.38;;;25.60;99.90;;;;;;4997147;28;20050;-47
2023/05/09 06:04:48;;;;;;;11.88;7.85;;;25.60;99.90;;;;;;4999888;28;20027;-47
2023/05/09 06:07:14;;;;;;;12.15;8.27;;;25.60;99.90;;;;;;4992369;28;20030;-47
2023/05/09 06:09:40;;;;;;;14.82;8.20;;;25.60;99.90;;;;;;4992497;28;20019;-49
2023/05/09 06:12:06;;;;;;;13.02;8.23;;;25.60;99.90;;;;;;4992262;28;20105;-47
2023/05/09 06:14:32;;;;;;;14.50;8.15;;;25.60;99.90;;;;;;4992817;28;20076;-47
2023/05/09 06:16:58;;;;;;;8.65;7.28;;;25.60;99.90;;;;;;4992397;28;20164;-47
2023/05/09 06:19:24;;;;;;;13.18;8.27;;;25.60;99.90;;;;;;4992523;28;20027;-47
2023/05/09 06:21:50;;;;;;;10.25;7.35;;;25.60;99.90;;;;;;4992335;28;20026;-47
2023/05/09 06:24:16;;;;;;;9.48;7.60;;;25.60;99.90;;;;;;4991356;28;20373;-46
2023/05/09 06:26:42;;;;;;;9.43;6.57;;;25.60;99.90;;;;;;4992508;28;20030;-47
2023/05/09 06:29:08;;;;;;;10.15;7.07;;;25.60;99.90;;;;;;4992140;28;20029;-46
2023/05/09 06:31:37;;;;;;;9.15;7.05;;;25.60;99.90;;;;;;4992665;28;20058;-47
2023/05/09 06:34:06;;;;;;;10.98;7.60;;;25.60;99.90;;;;;;4996015;28;20026;-48
2023/05/09 06:36:33;;;;;;;12.43;7.55;;;25.50;99.90;;;;;;5001254;28;20038;-48
2023/05/09 06:38:59;;;;;;;11.53;7.80;;;25.60;99.90;;;;;;4994578;28;20030;-47
2023/05/09 06:41:25;;;;;;;10.57;7.45;;;25.60;99.90;;;;;;4994936;28;20089;-48
2023/05/09 06:43:52;;;;;;;11.75;7.93;;;25.60;99.90;;;;;;4994814;28;20026;-48
2023/05/09 06:46:18;;;;;;;12.18;8.15;;;25.60;99.90;;;;;;4996079;28;20062;-47
2023/05/09 06:48:43;;;;;;;9.50;7.03;;;25.60;99.90;;;;;;4995870;28;20065;-48
2023/05/09 06:51:10;;;;;;;10.20;7.22;;;25.60;99.90;;;;;;4995986;28;20019;-48
2023/05/09 06:53:36;;;;;;;11.07;7.50;;;25.60;99.90;;;;;;4996117;28;20022;-48
2023/05/09 06:56:02;;;;;;;10.90;7.25;;;25.60;99.90;;;;;;4995675;28;20469;-48
2023/05/09 06:58:28;;;;;;;8.90;6.85;;;25.60;99.90;;;;;;4994583;28;20062;-48
2023/05/09 07:00:54;;;;;;;8.25;6.55;;;25.60;99.90;;;;;;4980990;28;20092;-49
2023/05/09 07:03:20;;;;;;;9.82;7.32;;;25.60;99.90;;;;;;4995617;28;20022;-48
2023/05/09 07:05:46;;;;;;;8.50;7.25;;;25.60;99.90;;;;;;5008693;28;20037;-49
2023/05/09 07:08:12;;;;;;;9.18;7.25;;;25.60;99.90;;;;;;4995736;28;20033;-48
2023/05/09 07:10:38;;;;;;;10.40;7.28;;;25.60;99.90;;;;;;4994407;28;20018;-47
2023/05/09 07:13:04;;;;;;;9.88;7.47;;;25.60;99.90;;;;;;4995730;28;20058;-47
2023/05/09 07:15:30;;;;;;;11.15;7.95;;;25.60;99.90;;;;;;4995446;28;20081;-47
2023/05/09 07:17:56;;;;;;;9.73;7.10;;;25.60;99.90;;;;;;4995455;28;20046;-48
2023/05/09 07:20:21;;;;;;;10.68;7.55;;;25.60;99.90;;;;;;4995352;28;20018;-47
2023/05/09 07:22:47;;;;;;;9.02;7.55;;;25.60;99.90;;;;;;4995383;28;20058;-48
2023/05/09 07:25:13;;;;;;;8.68;7.60;;;25.60;99.90;;;;;;4995311;28;20027;-49
2023/05/09 07:27:39;;;;;;;11.07;7.85;;;25.60;99.90;;;;;;4995430;28;20029;-49
2023/05/09 07:30:05;;;;;;;8.20;7.30;;;25.60;99.90;;;;;;4995524;28;20468;-48
2023/05/09 07:32:31;;;;;;;12.57;6.80;;;25.60;99.90;;;;;;4993729;28;20105;-48
2023/05/09 07:34:57;;;;;;;9.40;6.90;;;25.60;99.90;;;;;;4995080;28;20026;-47
2023/05/09 07:37:23;;;;;;;8.18;6.78;;;25.60;99.90;;;;;;4994851;28;20031;-47
2023/05/09 07:39:50;;;;;;;9.15;7.05;;;25.60;99.90;;;;;;4995155;28;20029;-48
2023/05/09 07:42:16;;;;;;;8.77;6.50;;;25.60;99.90;;;;;;4995038;28;20030;-48
2023/05/09 07:44:42;;;;;;;9.85;7.15;;;25.60;99.90;;;;;;4994937;28;20023;-48
2023/05/09 07:47:08;;;;;;;10.82;7.95;;;25.70;99.90;;;;;;4994832;28;20516;-48
2023/05/09 07:49:34;;;;;;;9.88;6.88;;;25.70;99.90;;;;;;4994102;28;20101;-48
2023/05/09 07:52:00;;;;;;;10.50;7.13;;;25.60;99.90;;;;;;4994974;28;20062;-48
2023/05/09 07:54:26;;;;;;;9.32;6.95;;;25.70;99.90;;;;;;4994856;28;20428;-49
2023/05/09 07:56:52;;;;;;;8.43;6.63;;;25.70;99.90;;;;;;4994750;28;20034;-48
2023/05/09 07:59:18;;;;;;;9.02;6.90;;;25.70;99.90;;;;;;4994663;28;20527;-48
2023/05/09 08:01:44;;;;;;;8.73;6.60;;;25.70;99.90;;;;;;4994645;28;20082;-47
2023/05/09 08:04:10;;;;;;;9.93;6.63;;;25.70;99.90;;;;;;4994721;28;20473;-48
2023/05/09 08:06:36;;;;;;;10.68;6.90;;;25.70;99.90;;;;;;4994781;28;20113;-48
2023/05/09 08:09:03;;;;;;;10.52;7.00;;;25.70;99.90;;;;;;4994401;28;20038;-48
2023/05/09 08:11:31;;;;;;;;;;;25.70;99.90;;;;;;4994811;28;20546;-48
2023/05/09 08:13:57;;;;;;;7.30;6.50;;;25.70;99.90;;;;;;4994359;28;20363;-47
2023/05/09 08:16:23;;;;;;;7.40;6.32;;;25.70;99.90;;;;;;4994283;28;20121;-48
2023/05/09 08:18:48;;;;;;;8.77;6.45;;;25.80;99.90;;;;;;4994005;28;20425;-47
2023/05/09 08:21:14;;;;;;;7.63;6.25;;;25.70;99.90;;;;;;4994371;28;20042;-49
2023/05/09 08:23:40;;;;;;;8.70;6.43;;;25.80;99.90;;;;;;4994387;28;20449;-48
2023/05/09 08:26:06;;;;;;;8.50;6.28;;;25.70;99.90;;;;;;4994176;28;20097;-48
2023/05/09 08:28:32;;;;;;;9.10;6.43;;;25.70;99.90;;;;;;4993930;28;20019;-48
2023/05/09 08:30:57;;;;;;;8.35;6.25;;;25.70;99.90;;;;;;4993976;28;20097;-49
2023/05/09 08:33:23;;;;;;;11.02;6.80;;;25.80;99.90;;;;;;4992658;28;20022;-49
2023/05/09 08:35:52;;;;;;;9.07;6.90;;;25.80;99.90;;;;;;4993801;28;20022;-48
2023/05/09 08:38:19;;;;;;;10.07;7.43;;;25.80;99.90;;;;;;4993808;28;20084;-48
2023/05/09 08:40:44;;;;;;;11.00;6.57;;;25.80;99.90;;;;;;4993712;28;20093;-48
2023/05/09 08:43:11;;;;;;;8.63;6.30;;;25.80;99.90;;;;;;4993914;28;20068;-48
2023/05/09 08:45:50;;;;;;;8.93;7.30;;;25.80;99.90;;;;;;4993830;28;20018;-48
2023/05/09 08:48:17;;;;;;;10.82;7.93;;;25.80;99.90;;;;;;4993819;28;20264;-48
2023/05/09 08:50:43;;;;;;;10.15;6.80;;;25.80;99.90;;;;;;4993868;28;20026;-49
2023/05/09 08:53:10;;;;;;;8.32;6.93;;;25.80;99.90;;;;;;4993821;28;20027;-48
2023/05/09 08:55:37;;;;;;;9.23;8.05;;;25.80;99.90;;;;;;4993478;28;20105;-47
2023/05/09 08:58:03;;;;;;;8.52;6.38;;;25.80;99.90;;;;;;4993300;28;20091;-48
2023/05/09 09:00:31;;;;;;;9.15;7.47;;;25.80;99.90;;;;;;4993206;28;20489;-48
2023/05/09 09:03:00;;;;;;;11.65;7.05;;;25.80;99.90;;;;;;4991315;28;20041;-49
2023/05/09 09:05:28;;;;;;;9.77;7.03;;;25.80;99.90;;;;;;5006444;28;20379;-49
2023/05/09 09:07:55;;;;;;;10.43;6.80;;;25.80;99.90;;;;;;4993385;28;20469;-48
2023/05/09 09:10:24;;;;;;;10.50;7.53;;;25.90;99.90;;;;;;4991956;28;20034;-48
2023/05/09 09:12:53;;;;;;;9.35;6.90;;;25.80;99.90;;;;;;4993230;28;20058;-47
2023/05/09 09:15:21;;;;;;;8.23;7.18;;;25.90;99.90;;;;;;4993180;28;20037;-48
2023/05/09 09:17:49;;;;;;;10.13;7.40;;;25.90;99.90;;;;;;4993173;28;20034;-47
2023/05/09 09:20:17;;;;;;;9.48;7.47;;;25.90;99.90;;;;;;4993141;28;20101;-47
2023/05/09 09:22:42;;;;;;;;;;;25.90;99.90;;;;;;4993710;28;20025;-47
2023/05/09 09:25:09;;;;;;;10.38;7.38;;;25.90;99.90;;;;;;4993000;28;19905;-48
2023/05/09 09:27:34;;;;;;;9.30;7.22;;;25.90;99.90;;;;;;4993078;28;20027;-48
2023/05/09 09:30:11;;;;;;;11.65;7.45;;;25.90;99.90;;;;;;5005714;28;20032;-48
2023/05/09 09:32:38;;;;;;;10.35;7.60;;;25.90;99.90;;;;;;4992791;28;20022;-48
2023/05/09 09:35:09;;;;;;;9.60;7.45;;;25.90;99.90;;;;;;4993021;28;20076;-48
2023/05/09 09:37:38;;;;;;;12.88;7.50;;;25.90;99.90;;;;;;5004949;28;20042;-48
2023/05/09 09:40:08;;;;;;;13.27;8.02;;;25.90;99.90;;;;;;4992872;28;20453;-48
2023/05/09 09:42:41;;;;;;;10.07;7.68;;;25.90;99.90;;;;;;4992556;28;20021;-48
2023/05/09 09:45:18;;;;;;;12.00;7.53;;;25.90;99.90;;;;;;4992627;28;20029;-48
2023/05/09 09:47:46;;;;;;;12.57;7.95;;;26.00;99.90;;;;;;4992845;28;20045;-48
2023/05/09 09:50:12;;;;;;;;;;;26.00;99.90;;;;;;5006225;28;20026;-48
2023/05/09 09:52:50;;;;;;;11.25;7.30;;;26.00;99.90;;;;;;4992696;28;20369;-48
2023/05/09 09:55:17;;;;;;;9.55;8.07;;;26.00;99.90;;;;;;4992741;28;20468;-47
2023/05/09 09:57:47;;;;;;;8.45;7.05;;;26.00;99.90;;;;;;4992718;28;20121;-48
2023/05/09 10:00:34;;;;;;;9.52;7.70;;;26.00;99.90;;;;;;4992679;28;20432;-48
2023/05/09 10:03:00;;;;;;;9.65;7.47;;;26.00;99.90;;;;;;4992527;28;20464;-49
2023/05/09 10:05:28;;;;;;;14.43;8.68;;;26.00;99.90;;;;;;4992408;28;20098;-49
2023/05/09 10:07:59;;;;;;;10.93;7.68;;;26.00;99.90;;;;;;4992536;28;20117;-48
2023/05/09 10:10:30;;;;;;;11.27;7.85;;;26.00;99.90;;;;;;4992207;28;20516;-49
2023/05/09 10:12:58;;;;;;;11.68;7.78;;;26.10;99.90;;;;;;4992871;28;20373;-48
2023/05/09 10:15:25;;;;;;;9.57;8.25;;;26.00;99.90;;;;;;4996344;28;20026;-49
2023/05/09 10:17:53;;;;;;;;;;;26.10;99.90;;;;;;4996878;28;20039;-53
2023/05/09 10:20:19;;;;;;;11.55;8.25;;;26.10;99.90;;;;;;4996487;28;19975;-50
2023/05/09 10:22:45;;;;;;;10.05;7.22;;;26.10;99.90;;;;;;4996589;28;20030;-49
2023/05/09 10:25:20;;;;;;;13.20;7.90;;;26.10;99.90;;;;;;4996432;28;20026;-48
2023/05/09 10:27:47;;;;;;;13.15;8.50;;;26.10;99.90;;;;;;4996771;28;20030;-49
2023/05/09 10:30:23;;;;;;;11.55;7.78;;;26.10;99.90;;;;;;5009374;28;20022;-49
2023/05/09 10:32:58;;;;;;;10.35;7.70;;;26.10;99.90;;;;;;4996427;28;20026;-48
2023/05/09 10:35:28;;;;;;;10.48;7.43;;;26.10;99.90;;;;;;4994846;28;20030;-49
2023/05/09 10:37:58;;;;;;;11.60;8.20;;;26.10;99.90;;;;;;4995809;28;20090;-48
2023/05/09 10:40:26;;;;;;;9.90;7.43;;;26.20;99.90;;;;;;4996119;28;20394;-49
2023/05/09 10:42:52;;;;;;;10.23;7.32;;;26.10;99.90;;;;;;4995994;28;20511;-49
2023/05/09 10:45:22;;;;;;;10.57;8.50;;;26.10;99.90;;;;;;4995921;28;20058;-48
2023/05/09 10:47:50;;;;;;;9.40;8.02;;;26.20;99.90;;;;;;4995036;28;20073;-48
2023/05/09 10:50:16;;;;;;;10.02;8.55;;;26.20;99.90;;;;;;4994646;28;20081;-49
2023/05/09 10:53:07;;;;;;;9.88;8.05;;;26.20;99.90;;;;;;4995924;28;20149;-48
2023/05/09 10:55:49;;;;;;;9.85;7.63;;;26.20;99.90;;;;;;4995606;28;20484;-49
2023/05/09 10:58:25;;;;;;;12.98;6.97;;;26.20;99.90;;;;;;4995782;28;20038;-48
2023/05/09 11:00:56;;;;;;;12.55;8.00;;;26.20;99.90;;;;;;4995491;28;20099;-49
2023/05/09 11:03:23;;;;;;;12.73;7.97;;;26.20;99.90;;;;;;4995516;28;20022;-48
2023/05/09 11:05:54;;;;;;;10.77;7.80;;;26.20;99.90;;;;;;4995828;28;20362;-49
2023/05/09 11:08:22;;;;;;;10.90;8.57;;;26.20;99.90;;;;;;4995599;28;20519;-48
2023/05/09 11:10:48;;;;;;;11.02;8.43;;;26.20;99.90;;;;;;4995700;28;20022;-49
2023/05/09 11:13:19;;;;;;;12.57;7.78;;;26.30;99.90;;;;;;4994243;28;20385;-49
2023/05/09 11:16:03;;;;;;;10.02;7.60;;;26.20;99.90;;;;;;4995385;28;20022;-48
2023/05/09 11:18:31;;;;;;;10.48;7.60;;;26.30;99.90;;;;;;4994204;28;20096;-49
2023/05/09 11:20:58;;;;;;;9.68;8.25;;;26.30;99.90;;;;;;4995376;28;20468;-48
2023/05/09 11:23:30;;;;;;;12.73;8.83;;;26.30;99.90;;;;;;4994267;28;20074;-49
2023/05/09 11:26:05;;;;;;;11.25;8.43;;;26.30;99.90;;;;;;4994034;28;20267;-48
2023/05/09 11:28:36;;;;;;;11.15;7.70;;;26.30;99.90;;;;;;4995357;28;20105;-48
2023/05/09 11:31:13;;;;;;;10.07;7.82;;;26.30;99.90;;;;;;4995166;28;20034;-48
2023/05/09 11:33:40;;;;;;;14.02;8.80;;;26.30;99.90;;;;;;4995118;28;20022;-48
2023/05/09 11:36:30;;;;;;;11.45;7.47;;;26.30;99.90;;;;;;4995100;28;20606;-48
2023/05/09 11:39:08;;;;;;;9.27;7.70;;;26.30;99.90;;;;;;4994866;28;20395;-49
2023/05/09 11:41:42;;;;;;;8.07;6.97;;;26.40;99.90;;;;;;4995143;28;20053;-49
2023/05/09 11:44:15;;;;;;;13.57;8.60;;;26.40;99.90;;;;;;4994802;28;20022;-49
2023/05/09 11:46:42;;;;;;;9.45;7.93;;;26.40;99.90;;;;;;5005764;28;20026;-49
2023/05/09 11:49:07;;;;;;;9.90;8.40;;;26.40;99.90;;;;;;4996908;28;20022;-49
2023/05/09 11:51:38;;;;;;;14.45;8.15;;;26.40;99.90;;;;;;5003118;28;20026;-48
2023/05/09 11:54:09;;;;;;;13.32;8.25;;;26.40;99.90;;;;;;4997670;28;20026;-48
2023/05/09 11:56:36;;;;;;;9.35;7.22;;;26.40;99.90;;;;;;4994722;28;20061;-49
2023/05/09 11:59:02;;;;;;;;;;;26.40;99.90;;;;;;4995091;28;20027;-49
2023/05/09 12:01:31;;;;;;;10.02;8.00;;;26.40;99.90;;;;;;4994581;28;19929;-49
2023/05/09 12:03:58;;;;;;;12.30;8.15;;;26.40;99.90;;;;;;4994634;28;20026;-48
2023/05/09 12:06:28;;;;;;;11.37;7.77;;;26.40;99.90;;;;;;4994632;28;20026;-48
2023/05/09 12:08:56;;;;;;;8.30;7.45;;;26.50;99.90;;;;;;4994335;28;20399;-48
2023/05/09 12:11:22;;;;;;;;;;;26.50;99.90;;;;;;4995145;28;20044;-48
2023/05/09 12:13:50;;;;;;;11.75;7.85;;;26.50;99.90;;;;;;4994337;28;20015;-47
2023/05/09 12:16:17;;;;;;;13.30;8.07;;;26.50;99.90;;;;;;4994228;28;20034;-48
2023/05/09 12:18:50;;;;;;;11.55;8.20;;;26.50;99.90;;;;;;4994157;28;20528;-48
2023/05/09 12:21:20;;;;;;;8.90;6.93;;;26.50;99.90;;;;;;4994150;28;20026;-47
2023/05/09 12:23:46;;;;;;;10.52;8.48;;;26.50;99.90;;;;;;4994160;28;20093;-47
2023/05/09 12:26:13;;;;;;;10.00;7.90;;;26.50;99.90;;;;;;4994220;28;20031;-48
2023/05/09 12:28:39;;;;;;;10.70;8.63;;;26.50;99.90;;;;;;4992758;28;20053;-47
2023/05/09 12:31:06;;;;;;;11.43;7.88;;;26.50;99.90;;;;;;4994095;28;20772;-47
2023/05/09 12:33:32;;;;;;;10.13;7.70;;;26.50;99.90;;;;;;4994135;28;20504;-50
2023/05/09 12:36:09;;;;;;;8.60;7.28;;;26.50;99.90;;;;;;4993833;28;20018;-48
2023/05/09 12:38:36;;;;;;;10.65;7.85;;;26.50;99.90;;;;;;4993973;28;20038;-53
2023/05/09 12:41:01;;;;;;;18.52;12.82;;;26.50;99.90;;;;;;4993809;28;20102;-50
2023/05/09 12:43:36;;;;;;;19.20;11.32;;;26.50;99.90;;;;;;4993756;28;20108;-52